North Bay Airport
CYYB : now visible

Airfield :











YOU CAN JOIN US ON...

 
LOGIN :

Register | Disclaimer

   EN    FR    IT 

 









Legend :    VFR   Marginal VFR   IFR   Intensive IFR   Very Intensive IFR
Visi :
Ceiling :
>= 8 km
>= 3000ft
5 to 8 km
1000 to 3000 ft
1500m to 5 km
500 to 1000 ft
800 to 1500m
200 to 500 ft
< 800m
< 200 ft
Symbols :   Thunderstorms  Fog  Heavy snow  Heavy precipitations  Wind > 20 kt






- Airport Elevation : 1215 ft
- IATA code : YYB


CYYB - North Bay

CURRENT METAR :
  • 150408Z AUTO 02006KT 010V080 9SM -RA OVC044 04/03 A2984 RMK PRESFR SLP117

EXPIRED METARs :
  • 150300Z AUTO 02003KT 9SM OVC055 04/03 A2986 RMK SLP122
  • 150200Z 35005KT 15SM -SHRA OVC030 04/03 A2988 RMK SC8 LAST STFD OBS/NEXT 151100 UTC SLP130

TAF TAF CYYB
Valid from the 15 at 02:00 until the 15 at 14:00 UTC


150138Z 1502/1514 VRB03KT P6SM -SHRA FEW020 OVC040
TEMPO 1502/1504 3SM BR OVC020
FM150400 25007KT P6SM OVC080
TEMPO 1504/1506 3SM BR SCT008 OVC015
FM150600 23005KT P6SM BKN025 OVC120
TEMPO 1506/1514 11/2SM -DZ BR OVC008
PROB30 1509/1514 1/2SM -DZ FG OVC002 RMK NXT FCST BY 150800Z
CZYZ FIR / North America



MET'MAP, your aeronautical weather chart ! - Copyright ORBIFLY December 2007 - Disclaimer

ORBIFLY MET'MAP TEAM :

Programming & Development : Alexandra Zaïnal
Concept & original design : Baudouin d'Aumeries
Assistance for programming : Marc-Olivier Méhu
Technical & hardware support : Manuel Goepfert

Contact : metmap@orbifly.com




SOURCES & CREDITS :

   NOAA       Earth
Advisory